Time;durP1;ratioP1;P1;durP2;ratioP2;P2;SDS_P1;SDS_P2;PMS_P1;PMS_P2;Temp;Humidity;BMP_temperature;BMP_pressure;BME280_temperature;BME280_humidity;BME280_pressure;Samples;Min_cycle;Max_cycle;Signal;HPM_P1;HPM_P2
2021/09/21 00:00:17;;;;;;;12.88;10.10;;;10.10;98.40;;;;;;5044117;28;20232;-87
2021/09/21 00:02:46;;;;;;;11.05;9.65;;;10.10;98.30;;;;;;5036700;28;20234;-87
2021/09/21 00:05:13;;;;;;;14.32;9.55;;;10.20;98.60;;;;;;5042224;28;20229;-87
2021/09/21 00:07:40;;;;;;;12.68;9.90;;;10.20;98.30;;;;;;5035291;28;20202;-87
2021/09/21 00:10:08;;;;;;;12.30;9.50;;;10.20;98.30;;;;;;5043847;28;20624;-87
2021/09/21 00:12:35;;;;;;;14.35;10.30;;;10.30;98.20;;;;;;5043933;28;20261;-87
2021/09/21 00:15:04;;;;;;;12.15;9.98;;;10.30;98.20;;;;;;5044204;28;20273;-86
2021/09/21 00:17:31;;;;;;;13.48;10.43;;;10.30;98.40;;;;;;5051154;28;20229;-87
2021/09/21 00:20:00;;;;;;;12.57;9.77;;;10.40;98.40;;;;;;5065466;28;20252;-87
2021/09/21 00:22:27;;;;;;;12.95;10.23;;;10.40;98.40;;;;;;5024704;28;20258;-87
2021/09/21 00:24:54;;;;;;;12.02;10.05;;;10.50;98.50;;;;;;5025182;28;20187;-86
2021/09/21 00:27:21;;;;;;;11.93;10.07;;;10.50;98.30;;;;;;5058656;28;20269;-87
2021/09/21 00:29:48;;;;;;;11.40;9.48;;;10.50;98.50;;;;;;5084224;28;20236;-87
2021/09/21 00:32:19;;;;;;;13.15;10.50;;;10.60;98.40;;;;;;5085022;28;20217;-87
2021/09/21 00:34:47;;;;;;;14.98;10.32;;;10.80;98.10;;;;;;5074345;28;20232;-87
2021/09/21 00:37:16;;;;;;;14.93;10.55;;;10.90;97.80;;;;;;5081160;28;20197;-87
2021/09/21 00:39:44;;;;;;;13.70;10.43;;;10.90;97.60;;;;;;5065812;28;20240;-87
2021/09/21 00:42:12;;;;;;;13.35;10.65;;;11.00;97.40;;;;;;5077162;28;20249;-87
2021/09/21 00:44:40;;;;;;;10.35;9.15;;;11.10;97.10;;;;;;5100308;28;20695;-87
2021/09/21 00:47:09;;;;;;;10.65;9.02;;;11.10;97.00;;;;;;5095775;28;20239;-87
2021/09/21 00:49:37;;;;;;;11.63;8.70;;;11.10;96.80;;;;;;5104439;28;20303;-87
2021/09/21 00:52:05;;;;;;;9.90;8.80;;;11.10;96.70;;;;;;5096219;28;20204;-86
2021/09/21 00:54:33;;;;;;;10.60;8.75;;;11.10;96.10;;;;;;5092512;28;20220;-86
2021/09/21 00:57:00;;;;;;;11.40;9.18;;;11.00;96.40;;;;;;5104836;28;20231;-86
2021/09/21 00:59:27;;;;;;;9.45;8.30;;;11.00;96.30;;;;;;5096207;28;20735;-87
2021/09/21 01:01:54;;;;;;;11.27;8.45;;;10.90;96.50;;;;;;5060602;28;20226;-87
2021/09/21 01:04:21;;;;;;;11.25;8.25;;;10.90;96.60;;;;;;5063854;28;20692;-86
2021/09/21 01:06:48;;;;;;;9.48;8.35;;;10.90;96.80;;;;;;5073277;28;20216;-87
2021/09/21 01:09:19;;;;;;;11.60;8.52;;;11.00;97.10;;;;;;5085714;28;20705;-87
2021/09/21 01:11:49;;;;;;;12.15;9.13;;;11.00;96.80;;;;;;5091158;28;20284;-86
2021/09/21 01:14:17;;;;;;;10.65;8.25;;;10.90;96.50;;;;;;5071940;23;20237;-87
2021/09/21 01:16:44;;;;;;;10.65;8.27;;;10.90;96.40;;;;;;5043930;28;20323;-87
2021/09/21 01:19:12;;;;;;;9.80;8.07;;;11.00;96.70;;;;;;5049972;28;20235;-87
2021/09/21 01:21:42;;;;;;;10.43;8.85;;;11.10;96.30;;;;;;5050071;28;20234;-88
2021/09/21 01:24:09;;;;;;;9.50;8.05;;;11.10;96.00;;;;;;5039643;28;20256;-87
2021/09/21 01:26:37;;;;;;;11.23;8.73;;;11.10;96.00;;;;;;5043829;28;20293;-87
2021/09/21 01:29:04;;;;;;;10.02;8.77;;;11.10;96.00;;;;;;5042578;28;20233;-87
2021/09/21 01:31:31;;;;;;;13.13;8.32;;;11.00;96.00;;;;;;5042206;28;20286;-88
2021/09/21 01:34:00;;;;;;;9.43;8.32;;;11.00;96.10;;;;;;5045191;28;20742;-87
2021/09/21 01:36:45;;;;;;;11.43;8.50;;;11.10;96.00;;;;;;5047843;28;20198;-88
2021/09/21 01:39:12;;;;;;;10.27;8.07;;;11.20;96.00;;;;;;5038926;28;20225;-87
2021/09/21 01:41:39;;;;;;;9.73;8.30;;;11.10;96.00;;;;;;5046874;28;20307;-87
2021/09/21 01:44:06;;;;;;;11.80;9.10;;;11.10;96.00;;;;;;5047654;28;20261;-86
2021/09/21 01:46:37;;;;;;;11.20;8.48;;;10.90;95.90;;;;;;5048066;28;20218;-88
2021/09/21 01:49:04;;;;;;;10.80;8.43;;;10.90;95.90;;;;;;5047613;28;20244;-87
2021/09/21 01:51:33;;;;;;;12.40;8.45;;;11.00;95.90;;;;;;5050900;28;20721;-87
2021/09/21 01:54:14;;;;;;;9.70;8.63;;;11.00;95.80;;;;;;5062902;28;21021;-87
2021/09/21 01:59:27;;;;;;;9.75;8.15;;;11.10;96.00;;;;;;5050143;28;20739;-88
2021/09/21 02:01:54;;;;;;;10.45;8.23;;;11.10;95.90;;;;;;5039282;28;20298;-87
2021/09/21 02:04:21;;;;;;;9.18;8.15;;;11.10;95.50;;;;;;5034776;28;20701;-87
2021/09/21 02:06:48;;;;;;;8.85;7.95;;;11.30;95.40;;;;;;5028274;28;20208;-87
2021/09/21 02:09:16;;;;;;;8.60;7.70;;;11.40;94.70;;;;;;5041876;28;20242;-87
2021/09/21 02:11:46;;;;;;;8.95;7.75;;;11.50;94.70;;;;;;5055269;28;20234;-87
2021/09/21 02:14:14;;;;;;;10.32;8.10;;;11.40;94.90;;;;;;5045696;28;20241;-87
2021/09/21 02:16:42;;;;;;;10.77;8.20;;;11.30;94.90;;;;;;5039642;28;20198;-87
2021/09/21 02:19:09;;;;;;;8.05;7.25;;;11.40;94.90;;;;;;5026815;28;20241;-87
2021/09/21 02:21:36;;;;;;;8.40;7.43;;;11.40;94.70;;;;;;5039102;28;20230;-87
2021/09/21 02:24:04;;;;;;;9.55;7.75;;;11.50;94.50;;;;;;5044663;28;20655;-87
2021/09/21 02:26:32;;;;;;;9.85;8.02;;;11.60;94.50;;;;;;5045368;28;20217;-87
2021/09/21 02:28:59;;;;;;;9.48;7.40;;;11.60;94.60;;;;;;5044389;28;20222;-87
2021/09/21 02:31:26;;;;;;;9.18;7.53;;;11.60;94.80;;;;;;5045531;28;20717;-87
2021/09/21 02:33:53;;;;;;;9.13;7.45;;;11.60;94.80;;;;;;5040451;28;20281;-87
2021/09/21 02:36:20;;;;;;;9.25;7.20;;;11.70;94.50;;;;;;5049738;28;20714;-87
2021/09/21 02:38:47;;;;;;;8.95;7.43;;;11.70;94.30;;;;;;5043989;28;20229;-88
2021/09/21 02:41:14;;;;;;;9.30;7.75;;;11.70;94.40;;;;;;5038419;28;20206;-88
2021/09/21 02:43:43;;;;;;;10.40;9.20;;;11.70;94.60;;;;;;5044213;28;20318;-87
2021/09/21 02:46:10;;;;;;;10.50;8.00;;;11.60;94.60;;;;;;5047924;28;20697;-87
2021/09/21 02:48:37;;;;;;;8.80;7.45;;;11.60;94.90;;;;;;5040820;28;20320;-87
2021/09/21 02:51:04;;;;;;;8.57;7.65;;;11.50;94.70;;;;;;5042839;28;20206;-87
2021/09/21 02:53:31;;;;;;;9.63;8.13;;;11.50;94.90;;;;;;5031021;28;20250;-87
2021/09/21 02:55:58;;;;;;;9.80;8.20;;;11.40;95.30;;;;;;5043584;28;20194;-87
2021/09/21 02:58:25;;;;;;;9.13;7.97;;;11.50;95.60;;;;;;5043765;28;20228;-87
2021/09/21 03:00:55;;;;;;;10.75;8.50;;;11.50;95.10;;;;;;5043025;28;20222;-87
2021/09/21 03:03:25;;;;;;;12.52;8.15;;;11.60;95.20;;;;;;5042011;28;20246;-89
2021/09/21 03:05:57;;;;;;;10.70;7.72;;;11.60;94.90;;;;;;5037206;28;20202;-88
2021/09/21 03:08:26;;;;;;;9.45;7.95;;;11.50;94.20;;;;;;5052222;28;20717;-87
2021/09/21 03:11:07;;;;;;;8.50;7.57;;;11.40;94.40;;;;;;5035637;28;20233;-91
2021/09/21 03:13:54;;;;;;;9.20;7.93;;;11.50;94.50;;;;;;5038129;28;20233;-88
2021/09/21 03:19:07;;;;;;;9.27;7.70;;;11.60;93.70;;;;;;5039059;28;20236;-87
2021/09/21 03:21:34;;;;;;;9.02;7.35;;;11.60;94.10;;;;;;5033444;28;20209;-87
2021/09/21 03:24:01;;;;;;;8.85;7.35;;;11.70;94.20;;;;;;5031862;28;20229;-87
2021/09/21 03:26:28;;;;;;;8.73;7.43;;;11.80;94.00;;;;;;5050037;28;20194;-89
2021/09/21 03:28:55;;;;;;;10.73;7.38;;;11.80;93.80;;;;;;5041713;28;20223;-87
2021/09/21 03:31:23;;;;;;;8.40;7.50;;;11.80;94.20;;;;;;5043063;28;20205;-89
2021/09/21 03:33:50;;;;;;;8.25;7.13;;;11.70;94.30;;;;;;5030872;28;20306;-87
2021/09/21 03:36:21;;;;;;;7.68;6.88;;;11.70;94.50;;;;;;5039298;28;20270;-91
2021/09/21 03:38:48;;;;;;;8.50;7.20;;;11.80;94.30;;;;;;5040940;28;20536;-89
2021/09/21 03:41:15;;;;;;;8.65;7.43;;;11.80;94.30;;;;;;5037984;28;20286;-87
2021/09/21 03:43:42;;;;;;;7.80;6.85;;;11.80;94.10;;;;;;5036671;28;20326;-88
2021/09/21 03:46:09;;;;;;;9.07;7.50;;;11.90;94.20;;;;;;5043004;28;20281;-87
2021/09/21 03:48:37;;;;;;;9.77;7.80;;;11.90;94.20;;;;;;5054497;28;20329;-87
2021/09/21 03:51:15;;;;;;;9.60;7.05;;;11.80;94.00;;;;;;5042568;28;20198;-87
2021/09/21 03:53:42;;;;;;;9.18;7.30;;;11.90;94.20;;;;;;5033158;28;20286;-87
2021/09/21 03:56:08;;;;;;;8.65;7.47;;;11.90;94.50;;;;;;5030431;28;20619;-87
2021/09/21 03:58:35;;;;;;;9.45;7.88;;;11.90;94.20;;;;;;5038603;28;20305;-87
2021/09/21 04:01:02;;;;;;;9.68;8.05;;;11.90;94.30;;;;;;5039210;28;20197;-87
2021/09/21 04:03:29;;;;;;;9.30;7.45;;;11.90;94.30;;;;;;5041344;28;20226;-90
2021/09/21 04:05:58;;;;;;;8.75;7.40;;;11.90;94.20;;;;;;5041113;28;20222;-87
2021/09/21 04:08:24;;;;;;;9.90;6.82;;;11.80;94.50;;;;;;5042274;28;20260;-88
2021/09/21 04:10:51;;;;;;;8.68;7.55;;;11.80;94.50;;;;;;5047171;28;20317;-88
2021/09/21 04:13:18;;;;;;;9.75;8.60;;;11.70;94.70;;;;;;5042869;28;20290;-88
2021/09/21 04:15:45;;;;;;;9.48;7.90;;;11.60;94.80;;;;;;5042953;28;20664;-87
2021/09/21 04:18:12;;;;;;;8.73;7.53;;;11.60;95.40;;;;;;5045432;28;20204;-88
2021/09/21 04:20:39;;;;;;;10.27;7.72;;;11.70;95.00;;;;;;5038539;28;20234;-88
2021/09/21 04:23:08;;;;;;;11.13;8.32;;;11.80;94.90;;;;;;5049648;28;20246;-89
2021/09/21 04:25:35;;;;;;;9.20;7.95;;;11.80;94.80;;;;;;5043127;28;20206;-87
2021/09/21 04:28:02;;;;;;;10.00;7.65;;;11.70;95.00;;;;;;5025806;28;20238;-90
2021/09/21 04:30:29;;;;;;;10.13;7.93;;;11.70;95.50;;;;;;5040859;28;20564;-87
2021/09/21 04:32:56;;;;;;;9.90;7.68;;;11.70;94.90;;;;;;5036061;28;20289;-87
2021/09/21 04:35:23;;;;;;;8.82;7.63;;;11.70;94.80;;;;;;5042525;28;20305;-87
2021/09/21 04:37:50;;;;;;;10.15;7.78;;;11.80;94.80;;;;;;5038500;28;20564;-87
2021/09/21 04:40:19;;;;;;;10.52;7.78;;;11.80;94.70;;;;;;5028758;28;20231;-87
2021/09/21 04:42:46;;;;;;;8.98;8.00;;;11.70;94.80;;;;;;5037009;28;20593;-88
2021/09/21 04:45:13;;;;;;;9.23;7.70;;;11.70;95.20;;;;;;5030816;28;20243;-87
2021/09/21 04:47:40;;;;;;;8.93;7.80;;;11.60;94.70;;;;;;5038455;28;20198;-87
2021/09/21 04:50:08;;;;;;;9.45;8.40;;;11.50;94.70;;;;;;5043296;28;20225;-87
2021/09/21 04:52:35;;;;;;;9.52;8.48;;;11.60;94.60;;;;;;5041483;28;20713;-87
2021/09/21 04:55:03;;;;;;;10.13;8.60;;;11.50;94.50;;;;;;5053351;28;20248;-88
2021/09/21 04:57:32;;;;;;;10.15;8.50;;;11.50;94.40;;;;;;5046816;28;20203;-88
2021/09/21 04:59:58;;;;;;;11.20;8.90;;;11.50;94.40;;;;;;5041975;28;20254;-88
2021/09/21 05:02:40;;;;;;;10.48;8.90;;;11.30;94.60;;;;;;5032078;28;20738;-90
2021/09/21 05:05:25;;;;;;;11.52;8.90;;;11.20;95.30;;;;;;5030611;28;20218;-88
2021/09/21 05:08:00;;;;;;;10.55;8.50;;;11.20;95.10;;;;;;5046886;28;20229;-90
2021/09/21 05:10:45;;;;;;;11.18;8.32;;;11.30;95.00;;;;;;5046784;28;20234;-89
2021/09/21 05:13:14;;;;;;;11.93;9.15;;;11.20;95.10;;;;;;5044554;28;20237;-87
2021/09/21 05:15:41;;;;;;;11.60;8.73;;;11.20;95.30;;;;;;5041017;28;20194;-89
2021/09/21 05:18:08;;;;;;;10.48;8.90;;;11.20;95.30;;;;;;5043626;28;20222;-89
2021/09/21 05:20:35;;;;;;;10.50;8.68;;;11.20;95.30;;;;;;5042766;28;20213;-90
2021/09/21 05:23:04;;;;;;;11.50;8.40;;;11.30;95.00;;;;;;5036711;28;20242;-86
2021/09/21 05:25:31;;;;;;;10.30;8.23;;;11.50;94.70;;;;;;5043332;28;20226;-88
2021/09/21 05:27:58;;;;;;;10.13;8.52;;;11.60;94.20;;;;;;5051421;28;20264;-87
2021/09/21 05:30:27;;;;;;;11.40;8.57;;;11.70;94.00;;;;;;5040426;28;20293;-91
2021/09/21 05:32:54;;;;;;;12.70;8.90;;;11.70;94.10;;;;;;5037526;28;20202;-91
2021/09/21 05:35:21;;;;;;;9.45;8.48;;;11.50;93.60;;;;;;5040266;28;20219;-91
2021/09/21 05:37:49;;;;;;;10.52;8.55;;;11.40;94.20;;;;;;5033719;28;20781;-90
2021/09/21 05:40:16;;;;;;;11.68;8.48;;;11.30;94.60;;;;;;5045618;28;20301;-88
2021/09/21 05:42:48;;;;;;;10.63;8.43;;;11.40;94.80;;;;;;5035791;28;21129;-88
2021/09/21 05:45:15;;;;;;;9.43;7.88;;;11.50;94.30;;;;;;5034332;28;20258;-88
2021/09/21 05:47:44;;;;;;;10.48;8.60;;;11.60;94.10;;;;;;5030111;28;20199;-91
2021/09/21 05:50:14;;;;;;;9.35;7.82;;;11.60;94.30;;;;;;5032264;28;20654;-87
2021/09/21 05:52:44;;;;;;;12.13;7.90;;;11.60;94.30;;;;;;5039428;28;20212;-87
2021/09/21 05:55:12;;;;;;;8.10;6.85;;;11.80;93.60;;;;;;5045569;28;20287;-88
2021/09/21 05:57:40;;;;;;;8.50;6.97;;;11.90;93.50;;;;;;5031942;28;20231;-89
2021/09/21 06:00:08;;;;;;;9.18;7.20;;;11.90;93.30;;;;;;5001448;28;20759;-88
2021/09/21 06:02:36;;;;;;;7.78;6.90;;;12.00;93.40;;;;;;5031063;28;20671;-87
2021/09/21 06:05:07;;;;;;;9.52;7.00;;;12.00;93.10;;;;;;5029918;28;20237;-88
2021/09/21 06:07:34;;;;;;;9.60;7.43;;;11.90;93.10;;;;;;5039166;28;20205;-88
2021/09/21 06:10:01;;;;;;;8.45;6.65;;;11.80;92.90;;;;;;5038079;28;20236;-87
2021/09/21 06:12:28;;;;;;;10.32;7.25;;;11.80;93.60;;;;;;5044691;28;20249;-89
2021/09/21 06:15:31;;;;;;;7.82;6.65;;;12.00;93.30;;;;;;5045038;28;20233;-89
2021/09/21 06:17:58;;;;;;;6.85;6.13;;;12.20;92.80;;;;;;5039596;28;20210;-88
2021/09/21 06:20:26;;;;;;;7.53;6.45;;;12.30;92.80;;;;;;5033321;28;20225;-88
2021/09/21 06:22:53;;;;;;;7.75;6.50;;;12.30;92.80;;;;;;5040471;28;20222;-88
2021/09/21 06:25:20;;;;;;;8.10;6.95;;;12.30;92.70;;;;;;5037401;28;20647;-87
2021/09/21 06:27:47;;;;;;;8.73;6.95;;;12.40;92.30;;;;;;5040238;28;20293;-91
2021/09/21 06:30:16;;;;;;;7.78;6.97;;;12.40;91.80;;;;;;5049937;28;20246;-88
2021/09/21 06:32:43;;;;;;;7.28;6.40;;;12.40;91.30;;;;;;5045061;28;20643;-88
2021/09/21 06:35:11;;;;;;;8.35;6.65;;;12.40;91.80;;;;;;5069533;28;20295;-89
2021/09/21 06:37:40;;;;;;;10.80;6.35;;;12.50;92.40;;;;;;5073456;28;20186;-89
2021/09/21 06:40:13;;;;;;;11.93;6.57;;;12.50;92.10;;;;;;5055799;28;20230;-89
2021/09/21 06:42:45;;;;;;;7.30;6.50;;;12.60;91.90;;;;;;5052029;28;20306;-91
2021/09/21 06:45:32;;;;;;;7.68;6.72;;;12.60;91.80;;;;;;5043426;28;20219;-87
2021/09/21 06:48:01;;;;;;;10.05;8.30;;;12.50;91.90;;;;;;5028662;28;20207;-89
2021/09/21 06:50:28;;;;;;;7.93;7.00;;;12.50;92.00;;;;;;5029979;28;20302;-88
2021/09/21 06:52:58;;;;;;;9.50;7.10;;;12.60;92.20;;;;;;5032221;28;20238;-88
2021/09/21 06:56:10;;;;;;;9.43;8.13;;;12.70;91.90;;;;;;5025158;28;20202;-89
2021/09/21 06:58:37;;;;;;;11.40;8.40;;;12.60;91.70;;;;;;5031009;28;20217;-88
2021/09/21 07:01:05;;;;;;;12.40;8.25;;;12.60;91.90;;;;;;5046200;28;20318;-89
2021/09/21 07:03:58;;;;;;;12.38;8.52;;;12.50;91.80;;;;;;5030400;28;20236;-89
2021/09/21 07:06:25;;;;;;;9.85;8.57;;;12.60;91.60;;;;;;5048847;28;20226;-87
2021/09/21 07:09:00;;;;;;;12.25;8.35;;;12.60;91.10;;;;;;5029459;28;20295;-88
2021/09/21 07:11:27;;;;;;;12.80;9.57;;;12.70;91.20;;;;;;5031573;28;20199;-87
2021/09/21 07:13:55;;;;;;;11.68;9.52;;;12.80;90.90;;;;;;5014945;28;20302;-87
2021/09/21 07:16:23;;;;;;;14.18;9.38;;;12.90;91.00;;;;;;5012678;28;20697;-89
2021/09/21 07:18:50;;;;;;;10.77;9.13;;;12.80;90.90;;;;;;5052435;28;20285;-89
2021/09/21 07:21:18;;;;;;;11.38;8.63;;;12.80;90.90;;;;;;5050013;28;20266;-88
2021/09/21 07:23:48;;;;;;;11.20;8.40;;;12.80;90.90;;;;;;5013839;28;20238;-89
2021/09/21 07:26:17;;;;;;;10.70;9.60;;;13.00;91.00;;;;;;5041922;28;20198;-87
2021/09/21 07:28:45;;;;;;;17.40;10.50;;;13.10;91.00;;;;;;5042929;28;20246;-88
2021/09/21 07:31:15;;;;;;;11.68;9.77;;;13.20;90.30;;;;;;5028802;28;20205;-88
2021/09/21 07:33:42;;;;;;;11.30;9.45;;;13.30;90.10;;;;;;5001889;28;20248;-87
2021/09/21 07:36:09;;;;;;;13.32;9.70;;;13.60;90.00;;;;;;5040515;28;20202;-90
2021/09/21 07:38:36;;;;;;;13.02;10.43;;;13.70;87.70;;;;;;5041326;28;20233;-88
2021/09/21 07:41:04;;;;;;;11.80;9.43;;;13.60;87.10;;;;;;5032650;28;20674;-90
2021/09/21 07:43:32;;;;;;;13.07;9.73;;;13.80;88.60;;;;;;5023995;28;20236;-89
2021/09/21 07:45:59;;;;;;;12.07;8.90;;;14.10;87.60;;;;;;5032752;28;20201;-90
2021/09/21 07:48:27;;;;;;;11.32;8.82;;;14.30;85.40;;;;;;5028795;28;20314;-89
2021/09/21 07:50:56;;;;;;;11.98;8.63;;;14.40;82.00;;;;;;5024728;28;20610;-90
2021/09/21 07:53:23;;;;;;;10.32;8.38;;;14.50;82.00;;;;;;5032025;28;20234;-88
2021/09/21 07:55:51;;;;;;;9.93;7.65;;;14.50;79.80;;;;;;5029033;28;20202;-89
2021/09/21 07:58:19;;;;;;;8.95;7.70;;;14.60;79.60;;;;;;5033996;28;20568;-89
2021/09/21 08:00:51;;;;;;;8.88;7.95;;;14.70;79.80;;;;;;5033134;28;20199;-89
2021/09/21 08:03:18;;;;;;;9.82;7.57;;;14.80;80.30;;;;;;5019830;28;20225;-89
2021/09/21 08:05:45;;;;;;;8.52;7.60;;;14.60;79.10;;;;;;5038256;28;20202;-91
2021/09/21 08:08:15;;;;;;;8.07;7.28;;;14.50;79.70;;;;;;5031151;28;20734;-88
2021/09/21 08:10:42;;;;;;;8.38;7.43;;;14.40;80.70;;;;;;5025346;28;20203;-89
2021/09/21 08:13:09;;;;;;;11.07;9.32;;;14.50;81.00;;;;;;5024654;28;20758;-90
2021/09/21 08:15:36;;;;;;;10.75;9.45;;;14.40;80.00;;;;;;5015656;28;20195;-90
2021/09/21 08:18:07;;;;;;;12.60;9.50;;;14.20;79.60;;;;;;5025080;28;20286;-92
2021/09/21 08:20:34;;;;;;;13.43;10.55;;;14.30;82.20;;;;;;5033564;28;20194;-91
2021/09/21 08:23:02;;;;;;;13.13;10.52;;;14.40;77.50;;;;;;5034864;28;20191;-89
2021/09/21 08:25:29;;;;;;;19.17;9.50;;;14.40;76.90;;;;;;5030054;28;20290;-89
2021/09/21 08:27:56;;;;;;;11.65;9.90;;;14.40;76.80;;;;;;5030074;28;20197;-88
2021/09/21 08:30:23;;;;;;;13.45;10.68;;;14.50;77.80;;;;;;5030058;28;20309;-87
2021/09/21 08:32:53;;;;;;;15.02;10.93;;;14.40;76.80;;;;;;5030425;28;20201;-91
2021/09/21 08:35:21;;;;;;;12.73;11.27;;;14.50;76.90;;;;;;5033692;28;20673;-90
2021/09/21 08:37:48;;;;;;;12.50;10.73;;;14.60;77.00;;;;;;5032908;28;20576;-91
2021/09/21 08:40:16;;;;;;;12.65;11.10;;;14.80;77.10;;;;;;5027470;28;20218;-90
2021/09/21 08:42:43;;;;;;;16.05;11.27;;;15.10;75.40;;;;;;5028517;28;20217;-93
2021/09/21 08:45:20;;;;;;;12.38;11.05;;;15.10;74.60;;;;;;5025916;28;20222;-90
2021/09/21 08:47:48;;;;;;;12.05;10.75;;;14.90;72.90;;;;;;5033242;28;20216;-90
2021/09/21 08:50:16;;;;;;;12.50;11.18;;;15.00;70.80;;;;;;5032743;28;20222;-89
2021/09/21 08:52:44;;;;;;;13.98;12.10;;;14.90;72.30;;;;;;5033738;28;20216;-91
2021/09/21 08:55:13;;;;;;;17.60;11.60;;;15.20;73.30;;;;;;5032347;28;20233;-92
2021/09/21 08:57:41;;;;;;;15.77;11.32;;;15.20;70.70;;;;;;5038676;28;20199;-89
2021/09/21 09:00:12;;;;;;;14.93;11.65;;;15.30;70.40;;;;;;5039021;28;20245;-90
2021/09/21 09:02:39;;;;;;;14.77;11.80;;;15.40;65.00;;;;;;5037883;28;20194;-89
2021/09/21 09:05:09;;;;;;;16.67;12.10;;;15.20;68.80;;;;;;5037765;28;20585;-91
2021/09/21 09:07:36;;;;;;;13.63;11.77;;;15.20;67.80;;;;;;5040590;28;20215;-90
2021/09/21 09:10:07;;;;;;;18.90;11.82;;;15.20;66.80;;;;;;5039549;28;20223;-90
2021/09/21 09:12:35;;;;;;;14.52;11.75;;;15.20;67.80;;;;;;5028045;28;20219;-89
2021/09/21 09:15:16;;;;;;;13.20;11.73;;;15.40;68.60;;;;;;5035954;28;20229;-89
2021/09/21 09:17:54;;;;;;;15.85;12.40;;;15.30;65.30;;;;;;5012465;28;20217;-90
2021/09/21 09:20:32;;;;;;;14.63;11.63;;;15.10;67.50;;;;;;5024008;28;20222;-90
2021/09/21 09:22:59;;;;;;;13.27;11.65;;;15.40;66.10;;;;;;5024962;28;20202;-91
2021/09/21 09:25:27;;;;;;;16.10;12.18;;;15.50;64.00;;;;;;5039202;28;20233;-90
2021/09/21 09:27:54;;;;;;;12.55;11.23;;;15.30;64.40;;;;;;5029616;28;20278;-89
2021/09/21 09:30:24;;;;;;;13.93;11.90;;;15.70;67.00;;;;;;5033289;28;20229;-90
2021/09/21 09:32:54;;;;;;;12.95;11.52;;;15.80;62.30;;;;;;5031014;28;20288;-90
2021/09/21 09:35:25;;;;;;;13.52;11.60;;;15.90;58.70;;;;;;5034208;28;20221;-88
2021/09/21 09:37:54;;;;;;;14.60;10.85;;;16.10;60.50;;;;;;5033812;28;20576;-89
2021/09/21 09:40:21;;;;;;;12.38;11.07;;;16.40;59.40;;;;;;5032488;28;20226;-90
2021/09/21 09:42:51;;;;;;;12.85;10.82;;;16.60;58.00;;;;;;5032425;28;20271;-89
2021/09/21 09:45:29;;;;;;;12.68;11.35;;;16.60;55.20;;;;;;5028812;28;20575;-89
2021/09/21 09:47:56;;;;;;;12.45;11.25;;;16.80;56.50;;;;;;5033882;28;20194;-89
2021/09/21 09:50:27;;;;;;;12.27;10.98;;;16.80;53.00;;;;;;5035796;28;20257;-88
2021/09/21 09:53:04;;;;;;;15.38;11.15;;;17.00;53.40;;;;;;5040785;28;20205;-88
2021/09/21 09:55:32;;;;;;;13.27;11.48;;;16.70;54.20;;;;;;5029563;28;20899;-88
2021/09/21 09:58:01;;;;;;;12.13;10.73;;;16.50;54.50;;;;;;5025644;28;20203;-90
2021/09/21 10:00:29;;;;;;;13.93;10.40;;;16.50;54.20;;;;;;5028783;28;20623;-88
2021/09/21 10:02:57;;;;;;;11.38;9.90;;;16.50;52.70;;;;;;5038952;28;20208;-90
2021/09/21 10:05:27;;;;;;;12.77;10.45;;;16.50;52.70;;;;;;5039912;28;20557;-89
2021/09/21 10:07:56;;;;;;;16.02;11.73;;;16.80;50.70;;;;;;5035233;28;20202;-91
2021/09/21 10:10:23;;;;;;;13.70;10.40;;;16.80;48.50;;;;;;5030642;28;20219;-89
2021/09/21 10:12:50;;;;;;;12.35;10.52;;;16.90;47.60;;;;;;5036550;28;20226;-88
2021/09/21 10:15:18;;;;;;;12.13;10.65;;;16.90;51.80;;;;;;5024518;28;20226;-90
2021/09/21 10:17:52;;;;;;;13.48;9.90;;;17.00;48.00;;;;;;5035151;28;20224;-89
2021/09/21 10:20:19;;;;;;;14.30;10.07;;;16.90;46.20;;;;;;5030486;28;20222;-89
2021/09/21 10:22:52;;;;;;;10.23;9.13;;;17.00;45.00;;;;;;5031263;28;20289;-91
2021/09/21 10:25:28;;;;;;;11.10;10.00;;;17.10;49.50;;;;;;5030822;28;20284;-90
2021/09/21 10:27:55;;;;;;;14.32;10.52;;;17.10;48.50;;;;;;5027167;28;20194;-90
2021/09/21 10:30:29;;;;;;;11.35;10.15;;;17.00;50.10;;;;;;5030426;28;20233;-89
2021/09/21 10:32:58;;;;;;;15.70;10.93;;;17.10;46.50;;;;;;5032625;28;20191;-89
2021/09/21 10:35:29;;;;;;;10.55;9.45;;;17.10;46.80;;;;;;5024030;28;20252;-89
2021/09/21 10:38:01;;;;;;;13.15;10.73;;;17.20;48.40;;;;;;5038832;28;20197;-89
2021/09/21 10:40:36;;;;;;;12.40;9.23;;;17.30;41.90;;;;;;5030140;28;20619;-90
2021/09/21 10:43:03;;;;;;;10.98;9.25;;;17.70;42.00;;;;;;5033074;28;20208;-88
2021/09/21 10:45:32;;;;;;;10.82;9.00;;;17.70;41.90;;;;;;5028360;28;20225;-89
2021/09/21 10:48:04;;;;;;;10.50;9.45;;;17.60;40.90;;;;;;5023936;28;20225;-88
2021/09/21 10:50:38;;;;;;;9.85;8.55;;;17.70;41.00;;;;;;5033011;28;20291;-90
2021/09/21 10:53:06;;;;;;;11.68;9.55;;;17.70;40.70;;;;;;5032056;28;20201;-89
2021/09/21 10:55:38;;;;;;;11.73;9.68;;;17.70;42.40;;;;;;5027627;28;20195;-93
2021/09/21 10:58:06;;;;;;;10.77;9.60;;;17.60;41.70;;;;;;5035206;28;20194;-90
2021/09/21 11:00:36;;;;;;;10.50;9.38;;;17.70;43.60;;;;;;5029525;28;20224;-89
2021/09/21 11:03:04;;;;;;;13.20;10.43;;;17.90;40.20;;;;;;5044151;28;20195;-87
2021/09/21 11:05:31;;;;;;;12.52;9.25;;;17.80;40.60;;;;;;5043672;28;20222;-87
2021/09/21 11:08:01;;;;;;;11.20;9.85;;;17.70;40.70;;;;;;5042072;28;20206;-86
2021/09/21 11:10:29;;;;;;;10.77;9.25;;;18.00;40.00;;;;;;5039169;28;20761;-86
2021/09/21 11:12:57;;;;;;;14.98;10.77;;;18.00;40.20;;;;;;5035251;28;20796;-87
2021/09/21 11:15:26;;;;;;;10.80;9.65;;;17.90;38.80;;;;;;5048346;28;20230;-90
2021/09/21 11:18:04;;;;;;;10.95;9.00;;;17.70;40.30;;;;;;5043567;28;20234;-85
2021/09/21 11:20:31;;;;;;;11.65;9.65;;;17.90;38.70;;;;;;5023613;28;20214;-88
2021/09/21 11:23:02;;;;;;;10.90;9.23;;;18.10;39.60;;;;;;5034914;28;20206;-90
2021/09/21 11:25:31;;;;;;;9.45;8.50;;;17.80;40.00;;;;;;5026951;28;20227;-88
2021/09/21 11:27:58;;;;;;;11.73;9.45;;;17.90;38.50;;;;;;5028064;28;20278;-87
2021/09/21 11:30:26;;;;;;;10.68;9.57;;;18.00;38.80;;;;;;5030309;28;20232;-89
2021/09/21 11:32:53;;;;;;;10.98;9.07;;;17.90;36.90;;;;;;5035724;28;20246;-87
2021/09/21 11:35:24;;;;;;;9.15;8.23;;;17.40;38.70;;;;;;5031249;28;20238;-89
2021/09/21 11:37:53;;;;;;;11.10;9.30;;;17.50;39.80;;;;;;5037987;28;20199;-88
2021/09/21 11:40:24;;;;;;;13.02;10.43;;;17.60;39.70;;;;;;5037364;28;20222;-90
2021/09/21 11:42:52;;;;;;;14.05;8.88;;;17.50;38.40;;;;;;5036587;28;20262;-89
2021/09/21 11:45:19;;;;;;;9.95;8.95;;;17.50;41.20;;;;;;5044799;28;20226;-88
2021/09/21 11:47:48;;;;;;;11.77;9.15;;;17.50;40.70;;;;;;5037676;28;20202;-89
2021/09/21 11:50:16;;;;;;;10.80;8.48;;;17.30;40.50;;;;;;5035697;28;20222;-88
2021/09/21 11:52:51;;;;;;;10.18;9.07;;;17.20;43.70;;;;;;5030431;28;20194;-89
2021/09/21 11:55:20;;;;;;;10.10;8.20;;;16.90;42.20;;;;;;5032138;28;20718;-88
2021/09/21 11:57:48;;;;;;;10.07;9.02;;;17.00;43.60;;;;;;5035264;28;20241;-88
2021/09/21 12:00:34;;;;;;;11.95;9.45;;;16.90;43.60;;;;;;5040413;28;20309;-89
2021/09/21 12:03:04;;;;;;;10.82;9.73;;;16.80;42.10;;;;;;5039950;28;20911;-89
2021/09/21 12:05:34;;;;;;;12.65;9.73;;;16.70;42.40;;;;;;5038179;28;20315;-88
2021/09/21 12:08:06;;;;;;;10.18;8.93;;;16.70;43.00;;;;;;5034494;28;20209;-91
2021/09/21 12:10:33;;;;;;;11.02;8.98;;;17.00;43.00;;;;;;5030851;28;20220;-91
2021/09/21 12:13:09;;;;;;;11.48;9.55;;;17.20;44.00;;;;;;5039287;28;20225;-88
2021/09/21 12:15:39;;;;;;;10.24;9.18;;;17.30;42.40;;;;;;5030005;28;1378032;-89
2021/09/21 12:18:08;;;;;;;10.07;9.10;;;17.30;42.40;;;;;;5035454;28;20194;-88
2021/09/21 12:20:35;;;;;;;11.90;10.23;;;17.10;41.40;;;;;;5041258;28;20266;-88
2021/09/21 12:23:05;;;;;;;11.52;10.43;;;17.20;40.10;;;;;;5041461;28;20225;-89
2021/09/21 12:25:35;;;;;;;11.20;9.85;;;17.10;38.90;;;;;;5038030;28;20226;-89
2021/09/21 12:28:05;;;;;;;11.30;10.10;;;17.00;39.70;;;;;;5027277;28;20226;-91
2021/09/21 12:30:35;;;;;;;13.25;10.15;;;17.10;39.20;;;;;;5038334;28;20306;-88
2021/09/21 12:33:05;;;;;;;10.35;8.80;;;17.20;40.30;;;;;;5037810;28;20290;-88
2021/09/21 12:35:33;;;;;;;10.10;9.10;;;17.40;40.70;;;;;;5033274;28;20278;-88
2021/09/21 12:38:08;;;;;;;11.27;8.65;;;17.80;38.40;;;;;;5036110;28;20190;-88
2021/09/21 12:40:47;;;;;;;10.48;9.48;;;18.00;38.80;;;;;;5039259;28;20688;-88
2021/09/21 12:43:17;;;;;;;11.15;8.98;;;18.20;36.50;;;;;;5033388;28;20203;-88
2021/09/21 12:45:46;;;;;;;9.98;8.82;;;18.00;37.10;;;;;;5030711;28;20234;-90
2021/09/21 12:48:13;;;;;;;9.93;8.98;;;17.80;36.70;;;;;;5035813;28;20194;-89
2021/09/21 12:50:41;;;;;;;10.20;9.07;;;17.80;38.30;;;;;;5027054;28;20321;-90
2021/09/21 12:53:18;;;;;;;11.18;9.90;;;17.60;39.90;;;;;;5023435;28;20604;-88